Time;durP1;ratioP1;P1;durP2;ratioP2;P2;SDS_P1;SDS_P2;PMS_P1;PMS_P2;Temp;Humidity;BMP_temperature;BMP_pressure;BME280_temperature;BME280_humidity;BME280_pressure;Samples;Min_cycle;Max_cycle;Signal;HPM_P1;HPM_P2
2021/11/20 00:01:40;;;;;;;;;;;10.80;99.90;;;;;;5091745;28;20315;-76
2021/11/20 00:04:06;;;;;;;;;;;10.80;99.90;;;;;;5090683;28;19920;-91
2021/11/20 00:06:33;;;;;;;;;;;10.80;99.90;;;;;;5091789;28;20053;-77
2021/11/20 00:08:59;;;;;;;;;;;10.90;99.90;;;;;;5092062;28;20029;-75
2021/11/20 00:11:26;;;;;;;;;;;10.80;99.90;;;;;;5088328;28;20020;-76
2021/11/20 00:13:53;;;;;;;;;;;10.90;99.90;;;;;;5091895;28;19927;-76
2021/11/20 00:16:20;;;;;;;;;;;10.80;99.90;;;;;;5106807;28;20357;-76
2021/11/20 00:18:46;;;;;;;;;;;10.90;99.90;;;;;;5092422;28;20058;-76
2021/11/20 00:21:14;;;;;;;;;;;10.80;99.90;;;;;;5092654;28;20594;-76
2021/11/20 00:23:42;;;;;;;;;;;10.80;99.90;;;;;;5090682;28;19962;-76
2021/11/20 00:26:09;;;;;;;;;;;10.80;99.90;;;;;;5092524;28;19927;-78
2021/11/20 00:28:53;;;;;;;;;;;10.80;99.90;;;;;;5093630;28;19912;-77
2021/11/20 00:31:19;;;;;;;;;;;10.80;99.90;;;;;;5091194;28;19939;-76
2021/11/20 00:33:44;;;;;;;;;;;10.80;99.90;;;;;;5090429;28;20311;-76
2021/11/20 00:36:11;;;;;;;;;;;10.90;99.90;;;;;;5091001;28;19958;-76
2021/11/20 00:38:37;;;;;;;;;;;10.80;99.90;;;;;;5089843;28;19974;-77
2021/11/20 00:41:07;;;;;;;;;;;10.80;99.90;;;;;;5093784;28;19932;-77
2021/11/20 00:43:33;;;;;;;;;;;10.80;99.90;;;;;;5095199;28;20321;-76
2021/11/20 00:45:59;;;;;;;;;;;10.80;99.90;;;;;;5095165;28;19923;-77
2021/11/20 00:48:25;;;;;;;;;;;10.80;99.90;;;;;;5083982;28;19912;-77
2021/11/20 00:50:54;;;;;;;;;;;10.80;99.90;;;;;;5093610;28;19916;-77
2021/11/20 00:53:20;;;;;;;;;;;10.70;99.90;;;;;;5093212;28;20307;-77
2021/11/20 00:55:46;;;;;;;;;;;10.80;99.90;;;;;;5093733;28;19931;-77
2021/11/20 00:58:12;;;;;;;;;;;10.70;99.90;;;;;;5083217;28;20014;-77
2021/11/20 01:00:39;;;;;;;;;;;10.70;99.90;;;;;;5090453;28;19920;-77
2021/11/20 01:03:05;;;;;;;;;;;10.80;99.90;;;;;;5093449;28;20310;-91
2021/11/20 01:05:31;;;;;;;;;;;10.70;99.90;;;;;;5092061;28;20007;-77
2021/11/20 01:07:57;;;;;;;;;;;10.70;99.90;;;;;;5087612;28;20374;-77
2021/11/20 01:10:26;;;;;;;;;;;10.70;99.90;;;;;;5093395;28;19915;-76
2021/11/20 01:12:51;;;;;;;;;;;10.80;99.90;;;;;;5110149;28;20310;-76
2021/11/20 01:15:20;;;;;;;;;;;10.80;99.90;;;;;;5090960;28;19970;-77
2021/11/20 01:17:46;;;;;;;;;;;10.80;99.90;;;;;;5093059;28;19922;-77
2021/11/20 01:20:12;;;;;;;;;;;10.80;99.90;;;;;;5096154;28;19995;-77
2021/11/20 01:22:38;;;;;;;;;;;10.70;99.90;;;;;;5092443;28;19961;-81
2021/11/20 01:25:04;;;;;;;;;;;10.70;99.90;;;;;;5093095;28;20244;-77
2021/11/20 01:27:29;;;;;;;;;;;10.70;99.90;;;;;;5090521;28;20563;-77
2021/11/20 01:29:55;;;;;;;;;;;10.80;99.90;;;;;;5093570;28;19916;-77
2021/11/20 01:32:21;;;;;;;;;;;10.70;99.90;;;;;;5089430;28;19920;-77
2021/11/20 01:34:46;;;;;;;;;;;10.70;99.90;;;;;;5095454;28;19958;-76
2021/11/20 01:37:14;;;;;;;;;;;10.60;99.90;;;;;;5096060;28;19927;-77
2021/11/20 01:39:41;;;;;;;;;;;10.70;99.90;;;;;;5097421;28;19920;-77
2021/11/20 01:42:12;;;;;;;;;;;10.60;99.90;;;;;;5088512;28;20528;-76
2021/11/20 01:44:43;;;;;;;;;;;10.60;99.90;;;;;;5094385;28;20376;-80
2021/11/20 01:47:13;;;;;;;;;;;10.70;99.90;;;;;;5094560;28;20356;-76
2021/11/20 01:49:40;;;;;;;;;;;10.70;99.90;;;;;;5093052;28;19948;-76
2021/11/20 01:52:10;;;;;;;;;;;10.70;99.90;;;;;;5091511;28;19912;-76
2021/11/20 01:54:36;;;;;;;;;;;10.60;99.90;;;;;;5123380;27;20219;-76
2021/11/20 01:57:04;;;;;;;;;;;10.60;99.90;;;;;;5083227;28;19919;-90
2021/11/20 01:59:32;;;;;;;;;;;10.60;99.90;;;;;;5093493;28;19943;-86
2021/11/20 02:02:05;;;;;;;;;;;10.70;99.90;;;;;;5082940;28;19947;-76
2021/11/20 02:04:46;;;;;;;;;;;10.70;99.90;;;;;;5094902;28;19919;-77
2021/11/20 02:07:26;;;;;;;;;;;10.60;99.90;;;;;;5094844;28;20026;-76
2021/11/20 02:10:10;;;;;;;;;;;10.60;99.90;;;;;;5096379;28;19924;-76
2021/11/20 02:12:39;;;;;;;;;;;10.60;99.90;;;;;;5091927;28;19913;-76
2021/11/20 02:15:06;;;;;;;;;;;10.60;99.90;;;;;;5092297;28;19944;-76
2021/11/20 02:17:37;;;;;;;;;;;10.60;99.90;;;;;;5093653;28;20313;-76
2021/11/20 02:20:09;;;;;;;;;;;10.60;99.90;;;;;;5088202;28;20011;-76
2021/11/20 02:22:40;;;;;;;;;;;10.60;99.90;;;;;;5093075;28;19912;-76
2021/11/20 02:25:06;;;;;;;;;;;10.60;99.90;;;;;;5095795;28;19912;-93
2021/11/20 02:27:34;;;;;;;;;;;10.70;99.90;;;;;;5092086;28;19938;-77
2021/11/20 02:30:11;;;;;;;;;;;10.60;99.90;;;;;;5092489;28;19927;-92
2021/11/20 02:32:37;;;;;;;;;;;10.60;99.90;;;;;;5088521;28;19927;-77
2021/11/20 02:35:03;;;;;;;;;;;10.70;99.90;;;;;;5088111;28;19912;-77
2021/11/20 02:37:29;;;;;;;;;;;10.70;99.90;;;;;;5095342;28;19919;-77
2021/11/20 02:39:54;;;;;;;;;;;10.60;99.90;;;;;;5088187;28;19962;-76
2021/11/20 02:42:21;;;;;;;;;;;10.60;99.90;;;;;;5088669;28;19920;-76
2021/11/20 02:44:47;;;;;;;;;;;10.60;99.90;;;;;;5094100;28;19916;-76
2021/11/20 02:47:24;;;;;;;;;;;10.60;99.90;;;;;;5097198;28;19920;-77
2021/11/20 02:49:51;;;;;;;;;;;10.60;99.90;;;;;;5091742;28;20007;-76
2021/11/20 02:52:16;;;;;;;;;;;10.60;99.90;;;;;;5087299;28;19920;-91
2021/11/20 02:54:42;;;;;;;;;;;10.60;99.90;;;;;;5092715;28;19924;-76
2021/11/20 02:57:28;;;;;;;;;;;10.50;99.90;;;;;;5092682;28;20310;-84
2021/11/20 02:59:53;;;;;;;;;;;10.60;99.90;;;;;;5090821;28;19916;-77
2021/11/20 03:02:19;;;;;;;;;;;10.50;99.90;;;;;;5063586;28;20632;-76
2021/11/20 03:04:44;;;;;;;;;;;10.50;99.90;;;;;;5094609;28;20226;-76
2021/11/20 03:07:11;;;;;;;;;;;10.50;99.90;;;;;;5094580;28;19921;-76
2021/11/20 03:09:39;;;;;;;;;;;10.50;99.90;;;;;;5087864;28;19916;-76
2021/11/20 03:12:07;;;;;;;;;;;10.50;99.90;;;;;;5081230;28;19919;-93
2021/11/20 03:14:32;;;;;;;;;;;10.50;99.90;;;;;;5092407;28;19991;-76
2021/11/20 03:16:59;;;;;;;;;;;10.50;99.90;;;;;;5089410;28;20074;-85
2021/11/20 03:19:27;;;;;;;;;;;10.50;99.90;;;;;;5094676;28;20302;-76
2021/11/20 03:21:54;;;;;;;;;;;10.50;99.90;;;;;;5085891;28;19923;-76
2021/11/20 03:24:21;;;;;;;;;;;10.40;99.90;;;;;;5094435;28;20190;-76
2021/11/20 03:26:47;;;;;;;;;;;10.40;99.90;;;;;;5089901;28;20377;-76
2021/11/20 03:29:13;;;;;;;;;;;10.40;99.90;;;;;;5109148;28;19916;-76
2021/11/20 03:31:39;;;;;;;;;;;10.40;99.90;;;;;;5093225;28;20861;-76
2021/11/20 03:34:05;;;;;;;;;;;10.40;99.90;;;;;;5087217;28;19994;-76
2021/11/20 03:36:31;;;;;;;;;;;10.40;99.90;;;;;;5093394;28;19919;-76
2021/11/20 03:38:57;;;;;;;;;;;10.40;99.90;;;;;;5093462;28;19920;-76
2021/11/20 03:41:23;;;;;;;;;;;10.40;99.90;;;;;;5093517;28;19935;-76
2021/11/20 03:43:48;;;;;;;;;;;10.40;99.90;;;;;;5088889;28;19912;-77
2021/11/20 03:46:14;;;;;;;;;;;10.40;99.90;;;;;;5093655;28;20266;-76
2021/11/20 03:48:40;;;;;;;;;;;10.40;99.90;;;;;;5090899;28;20001;-76
2021/11/20 03:51:06;;;;;;;;;;;10.40;99.90;;;;;;5088182;28;19966;-76
2021/11/20 03:53:32;;;;;;;;;;;10.40;99.90;;;;;;5092082;28;20196;-76
2021/11/20 03:55:57;;;;;;;;;;;10.40;99.90;;;;;;5093238;28;19942;-76
2021/11/20 03:58:23;;;;;;;;;;;10.40;99.90;;;;;;5087150;28;19919;-76
2021/11/20 04:00:51;;;;;;;;;;;10.40;99.90;;;;;;5088168;28;19912;-77
2021/11/20 04:03:21;;;;;;;;;;;10.40;99.90;;;;;;5094126;28;19981;-77
2021/11/20 04:05:47;;;;;;;;;;;10.40;99.90;;;;;;5093295;28;19916;-77
2021/11/20 04:08:13;;;;;;;;;;;10.40;99.90;;;;;;5090766;28;19919;-76
2021/11/20 04:10:38;;;;;;;;;;;10.30;99.90;;;;;;5092788;28;20218;-77
2021/11/20 04:13:04;;;;;;;;;;;10.40;99.90;;;;;;5082561;28;19962;-89
2021/11/20 04:15:30;;;;;;;;;;;10.30;99.90;;;;;;5095080;28;19921;-77
2021/11/20 04:17:55;;;;;;;;;;;10.40;99.90;;;;;;5091078;28;20299;-90
2021/11/20 04:20:22;;;;;;;;;;;10.30;99.90;;;;;;5087026;28;19919;-76
2021/11/20 04:22:48;;;;;;;;;;;10.30;99.90;;;;;;5094712;28;19939;-77
2021/11/20 04:25:15;;;;;;;;;;;10.30;99.90;;;;;;5091744;28;20010;-76
2021/11/20 04:27:41;;;;;;;;;;;10.30;99.90;;;;;;5097645;28;20298;-76
2021/11/20 04:30:08;;;;;;;;;;;10.30;99.90;;;;;;5098279;28;20041;-76
2021/11/20 04:32:34;;;;;;;;;;;10.30;99.90;;;;;;5096644;28;19923;-77
2021/11/20 04:34:59;;;;;;;;;;;10.30;99.90;;;;;;5093423;28;19912;-77
2021/11/20 04:37:25;;;;;;;;;;;10.30;99.90;;;;;;5096174;28;19928;-76
2021/11/20 04:39:50;;;;;;;;;;;10.30;99.90;;;;;;5096096;28;19916;-77
2021/11/20 04:42:16;;;;;;;;;;;10.30;99.90;;;;;;5095609;28;20231;-91
2021/11/20 04:44:42;;;;;;;;;;;10.30;99.90;;;;;;5092298;28;19916;-78
2021/11/20 04:47:07;;;;;;;;;;;10.30;99.90;;;;;;5093210;28;20226;-77
2021/11/20 04:49:33;;;;;;;;;;;10.20;99.90;;;;;;5094784;28;20091;-77
2021/11/20 04:51:58;;;;;;;;;;;10.20;99.90;;;;;;5097040;28;19947;-87
2021/11/20 04:54:24;;;;;;;;;;;10.30;99.90;;;;;;5092140;28;20212;-77
2021/11/20 04:56:50;;;;;;;;;;;10.30;99.90;;;;;;5090910;28;19912;-77
2021/11/20 04:59:15;;;;;;;;;;;10.30;99.90;;;;;;5089046;28;20005;-78
2021/11/20 05:01:41;;;;;;;;;;;10.20;99.90;;;;;;5093431;28;20261;-77
2021/11/20 05:04:06;;;;;;;;;;;10.20;99.90;;;;;;5096410;28;19920;-76
2021/11/20 05:06:33;;;;;;;;;;;10.20;99.90;;;;;;5099003;28;19916;-77
2021/11/20 05:09:01;;;;;;;;;;;10.20;99.90;;;;;;5094283;28;19912;-77
2021/11/20 05:11:28;;;;;;;;;;;10.20;99.90;;;;;;5092444;28;20282;-77
2021/11/20 05:13:54;;;;;;;;;;;10.10;99.90;;;;;;5110934;28;19938;-77
2021/11/20 05:16:19;;;;;;;;;;;10.20;99.90;;;;;;5092768;28;19912;-77
2021/11/20 05:18:46;;;;;;;;;;;10.20;99.90;;;;;;5085960;28;19913;-78
2021/11/20 05:21:13;;;;;;;;;;;10.20;99.90;;;;;;5096050;28;19958;-78
2021/11/20 05:23:39;;;;;;;;;;;10.20;99.90;;;;;;5095218;28;20317;-76
2021/11/20 05:26:07;;;;;;;;;;;10.20;99.90;;;;;;5088675;28;19942;-77
2021/11/20 05:28:32;;;;;;;;;;;10.10;99.90;;;;;;5094406;28;19982;-77
2021/11/20 05:30:59;;;;;;;;;;;10.10;99.90;;;;;;5094239;28;21075;-77
2021/11/20 05:33:27;;;;;;;;;;;10.20;99.90;;;;;;5097164;28;19965;-77
2021/11/20 05:35:53;;;;;;;;;;;10.20;99.90;;;;;;5089930;28;19999;-77
2021/11/20 05:38:19;;;;;;;;;;;10.10;99.90;;;;;;5098591;28;19963;-76
2021/11/20 05:40:45;;;;;;;;;;;10.10;99.90;;;;;;5093102;28;19967;-77
2021/11/20 05:43:13;;;;;;;;;;;10.10;99.90;;;;;;5088428;28;19920;-77
2021/11/20 05:45:39;;;;;;;;;;;10.10;99.90;;;;;;5090280;28;19939;-77
2021/11/20 05:48:05;;;;;;;;;;;10.10;99.90;;;;;;5088931;28;19947;-77
2021/11/20 05:50:31;;;;;;;;;;;10.10;99.90;;;;;;5094197;28;19966;-77
2021/11/20 05:52:57;;;;;;;;;;;10.10;99.90;;;;;;5097388;28;19961;-77
2021/11/20 05:55:25;;;;;;;;;;;10.10;99.90;;;;;;5095267;28;19912;-76
2021/11/20 05:57:51;;;;;;;;;;;10.10;99.90;;;;;;5094470;28;20241;-77
2021/11/20 06:00:18;;;;;;;;;;;10.10;99.90;;;;;;5088846;28;20023;-76
2021/11/20 06:02:44;;;;;;;;;;;10.10;99.90;;;;;;5123932;27;19919;-77
2021/11/20 06:05:10;;;;;;;;;;;10.10;99.90;;;;;;5094677;28;19912;-77
2021/11/20 06:07:35;;;;;;;;;;;10.10;99.90;;;;;;5089835;28;19913;-77
2021/11/20 06:10:01;;;;;;;;;;;10.10;99.90;;;;;;5094634;28;19981;-93
2021/11/20 06:12:26;;;;;;;;;;;10.10;99.90;;;;;;5090391;28;20584;-78
2021/11/20 06:14:52;;;;;;;;;;;10.10;99.90;;;;;;5094200;28;20311;-77
2021/11/20 06:17:18;;;;;;;;;;;10.10;99.90;;;;;;5079068;28;19912;-81
2021/11/20 06:19:43;;;;;;;;;;;10.10;99.90;;;;;;5086566;28;20322;-77
2021/11/20 06:22:09;;;;;;;;;;;10.10;99.90;;;;;;5095332;28;19912;-77
2021/11/20 06:24:35;;;;;;;;;;;10.10;99.90;;;;;;5095586;28;19935;-76
2021/11/20 06:27:01;;;;;;;;;;;10.20;99.90;;;;;;5082846;28;20002;-78
2021/11/20 06:29:26;;;;;;;;;;;10.20;99.90;;;;;;5095683;28;19924;-77
2021/11/20 06:31:52;;;;;;;;;;;10.10;99.90;;;;;;5088677;28;20325;-79
2021/11/20 06:34:17;;;;;;;;;;;10.10;99.90;;;;;;5094729;28;19924;-78
2021/11/20 06:36:43;;;;;;;;;;;10.10;99.90;;;;;;5089528;28;20007;-77
2021/11/20 06:39:09;;;;;;;;;;;10.10;99.90;;;;;;5094040;28;19924;-77
2021/11/20 06:41:35;;;;;;;;;;;10.10;99.90;;;;;;5090299;28;19920;-77
2021/11/20 06:44:01;;;;;;;;;;;10.10;99.90;;;;;;5089539;28;19935;-91
2021/11/20 06:46:26;;;;;;;;;;;10.10;99.90;;;;;;5091286;28;19916;-78
2021/11/20 06:48:52;;;;;;;;;;;10.10;99.90;;;;;;5093996;28;19977;-78
2021/11/20 06:51:18;;;;;;;;;;;10.10;99.90;;;;;;5094333;28;19926;-77
2021/11/20 06:53:45;;;;;;;;;;;10.10;99.90;;;;;;5109045;28;19919;-77
2021/11/20 06:56:15;;;;;;;;;;;10.10;99.90;;;;;;5089194;28;19965;-78
2021/11/20 06:58:54;;;;;;;;;;;10.00;99.90;;;;;;5095151;28;19912;-78
2021/11/20 07:01:20;;;;;;;;;;;10.10;99.90;;;;;;5094180;28;20261;-77
2021/11/20 07:03:48;;;;;;;;;;;10.10;99.90;;;;;;5095393;28;19920;-78
2021/11/20 07:06:17;;;;;;;;;;;10.10;99.90;;;;;;5089248;28;19944;-78
2021/11/20 07:08:43;;;;;;;;;;;10.10;99.90;;;;;;5093153;28;19923;-94
2021/11/20 07:11:09;;;;;;;;;;;10.10;99.90;;;;;;5086941;28;19966;-92
2021/11/20 07:13:35;;;;;;;;;;;10.00;99.90;;;;;;5092480;28;19912;-77
2021/11/20 07:16:01;;;;;;;;;;;10.00;99.90;;;;;;5086946;28;20405;-94
2021/11/20 07:18:26;;;;;;;;;;;10.10;99.90;;;;;;5089898;28;19916;-77
2021/11/20 07:20:52;;;;;;;;;;;10.00;99.90;;;;;;5092296;28;19916;-77
2021/11/20 07:23:18;;;;;;;;;;;10.00;99.90;;;;;;5092484;28;20337;-90
2021/11/20 07:25:43;;;;;;;;;;;10.00;99.90;;;;;;5088962;28;20306;-92
2021/11/20 07:28:09;;;;;;;;;;;10.00;99.90;;;;;;5075641;28;19916;-76
2021/11/20 07:30:36;;;;;;;;;;;10.00;99.90;;;;;;5085052;28;19961;-77
2021/11/20 07:33:02;;;;;;;;;;;10.00;99.90;;;;;;5076059;28;19912;-77
2021/11/20 07:35:27;;;;;;;;;;;10.00;99.90;;;;;;5094292;28;20092;-93
2021/11/20 07:37:53;;;;;;;;;;;10.00;99.90;;;;;;5105089;27;19928;-77
2021/11/20 07:40:19;;;;;;;;;;;10.00;99.90;;;;;;5094633;28;19919;-77
2021/11/20 07:42:45;;;;;;;;;;;10.00;99.90;;;;;;5089085;28;19912;-78
2021/11/20 07:45:11;;;;;;;;;;;10.10;99.90;;;;;;5093869;28;19912;-77
2021/11/20 07:47:36;;;;;;;;;;;10.10;99.90;;;;;;5089668;28;20307;-77
2021/11/20 07:50:03;;;;;;;;;;;10.00;99.90;;;;;;5092122;28;19920;-93
2021/11/20 07:52:29;;;;;;;;;;;10.00;99.90;;;;;;5087548;28;19916;-77
2021/11/20 07:54:54;;;;;;;;;;;10.00;99.90;;;;;;5088361;28;19912;-77
2021/11/20 07:57:20;;;;;;;;;;;10.00;99.90;;;;;;5091320;28;19920;-78
2021/11/20 07:59:46;;;;;;;;;;;10.00;99.90;;;;;;5092081;28;20302;-77
2021/11/20 08:02:11;;;;;;;;;;;10.10;99.90;;;;;;5094987;28;20271;-78
2021/11/20 08:04:38;;;;;;;;;;;10.10;99.90;;;;;;5093832;28;20370;-77
2021/11/20 08:07:07;;;;;;;;;;;10.10;99.90;;;;;;5092076;28;19956;-91
2021/11/20 08:09:33;;;;;;;;;;;10.10;99.90;;;;;;5104641;28;19920;-76
2021/11/20 08:12:00;;;;;;;;;;;10.10;99.90;;;;;;5092532;28;19999;-90
2021/11/20 08:14:26;;;;;;;;;;;10.10;99.90;;;;;;5092776;28;19919;-77
2021/11/20 08:16:51;;;;;;;;;;;10.10;99.90;;;;;;5093146;28;20324;-91
2021/11/20 08:19:17;;;;;;;;;;;10.10;99.90;;;;;;5093754;28;19916;-91
2021/11/20 08:21:43;;;;;;;;;;;10.10;99.90;;;;;;5092054;28;19956;-77
2021/11/20 08:24:09;;;;;;;;;;;10.10;99.90;;;;;;5093129;28;19912;-78
2021/11/20 08:26:36;;;;;;;;;;;10.10;99.90;;;;;;5084745;28;19919;-91
2021/11/20 08:29:09;;;;;;;;;;;10.20;99.90;;;;;;5092501;28;19912;-77
2021/11/20 08:31:35;;;;;;;;;;;10.20;99.90;;;;;;5081497;28;20218;-77
2021/11/20 08:34:02;;;;;;;;;;;10.20;99.90;;;;;;5091364;28;20294;-78
2021/11/20 08:36:27;;;;;;;;;;;10.20;99.90;;;;;;5090273;28;19924;-89
2021/11/20 08:38:53;;;;;;;;;;;10.20;99.90;;;;;;5085289;28;19951;-77
2021/11/20 08:41:18;;;;;;;;;;;10.20;99.90;;;;;;5078841;28;19997;-77
2021/11/20 08:43:45;;;;;;;;;;;10.20;99.90;;;;;;5087142;28;19915;-76
2021/11/20 08:46:10;;;;;;;;;;;10.20;99.90;;;;;;5088936;28;19938;-78
2021/11/20 08:48:36;;;;;;;;;;;10.20;99.90;;;;;;5089385;28;20365;-76
2021/11/20 08:51:05;;;;;;;;;;;10.20;99.90;;;;;;5089913;28;19916;-78
2021/11/20 08:53:31;;;;;;;;;;;10.20;99.90;;;;;;5091465;28;20194;-76
2021/11/20 08:55:58;;;;;;;;;;;10.20;99.90;;;;;;5087117;28;19939;-77
2021/11/20 08:58:24;;;;;;;;;;;10.20;99.90;;;;;;5092373;28;21102;-86
2021/11/20 09:00:52;;;;;;;;;;;10.20;99.90;;;;;;5093622;28;19999;-77
2021/11/20 09:03:20;;;;;;;;;;;10.20;99.90;;;;;;5094246;28;20010;-90
2021/11/20 09:06:04;;;;;;;;;;;10.20;99.90;;;;;;5094104;28;19916;-76
2021/11/20 09:08:34;;;;;;;;;;;10.30;99.90;;;;;;5090240;28;19912;-77
2021/11/20 09:11:03;;;;;;;;;;;10.30;99.90;;;;;;5088020;28;19916;-76
2021/11/20 09:13:33;;;;;;;;;;;10.30;99.90;;;;;;5089995;28;19919;-77
2021/11/20 09:16:01;;;;;;;;;;;10.30;99.90;;;;;;5093690;28;19943;-76
2021/11/20 09:18:28;;;;;;;;;;;10.30;99.90;;;;;;5095611;28;19926;-77
2021/11/20 09:20:55;;;;;;;;;;;10.30;99.90;;;;;;5095206;28;19952;-77
2021/11/20 09:23:21;;;;;;;;;;;10.30;99.90;;;;;;5090007;28;19916;-77
2021/11/20 09:25:47;;;;;;;;;;;10.30;99.90;;;;;;5089291;28;19912;-76
2021/11/20 09:28:14;;;;;;;;;;;10.30;99.90;;;;;;5098295;28;19961;-76
2021/11/20 09:30:41;;;;;;;;;;;10.30;99.90;;;;;;5095711;28;19916;-92
2021/11/20 09:33:07;;;;;;;;;;;10.40;99.90;;;;;;5094059;28;19930;-77
2021/11/20 09:35:32;;;;;;;;;;;10.40;99.90;;;;;;5093310;28;20002;-76
2021/11/20 09:37:58;;;;;;;;;;;10.40;99.90;;;;;;5095024;28;19928;-84
2021/11/20 09:40:27;;;;;;;;;;;10.40;99.90;;;;;;5095824;28;20008;-76
2021/11/20 09:42:54;;;;;;;;;;;10.30;99.90;;;;;;5080529;28;19951;-77
2021/11/20 09:45:23;;;;;;;;;;;10.30;99.90;;;;;;5094760;28;19959;-76
2021/11/20 09:47:57;;;;;;;;;;;10.30;99.90;;;;;;5081422;28;19948;-77
2021/11/20 09:50:25;;;;;;;;;;;10.30;99.90;;;;;;5098543;28;19920;-77
2021/11/20 09:52:51;;;;;;;;;;;10.30;99.90;;;;;;5092039;28;19912;-77
2021/11/20 09:55:23;;;;;;;;;;;10.30;99.90;;;;;;5093458;28;20230;-88
2021/11/20 09:57:52;;;;;;;;;;;10.30;99.90;;;;;;5089326;28;19912;-77
2021/11/20 10:00:36;;;;;;;;;;;10.30;99.90;;;;;;5084778;28;19916;-77
2021/11/20 10:03:05;;;;;;;;;;;10.30;99.90;;;;;;5086456;28;19921;-77
2021/11/20 10:05:34;;;;;;;;;;;10.30;99.90;;;;;;5105716;27;19912;-77
2021/11/20 10:08:02;;;;;;;;;;;10.30;99.90;;;;;;5090249;28;20053;-89
2021/11/20 10:10:36;;;;;;;;;;;10.30;99.90;;;;;;5088892;28;19970;-76
2021/11/20 10:13:11;;;;;;;;;;;10.30;99.90;;;;;;5089804;28;19923;-77
2021/11/20 10:15:42;;;;;;;;;;;10.30;99.90;;;;;;5094005;28;19912;-77
2021/11/20 10:18:18;;;;;;;;;;;10.40;99.90;;;;;;5104455;28;19927;-89
2021/11/20 10:21:15;;;;;;;;;;;10.40;99.90;;;;;;5092767;28;19944;-77
2021/11/20 10:24:00;;;;;;;;;;;10.40;99.90;;;;;;5091142;28;19977;-76
2021/11/20 10:26:41;;;;;;;;;;;10.40;99.90;;;;;;5096686;28;19955;-76
2021/11/20 10:29:14;;;;;;;;;;;10.40;99.90;;;;;;5094614;28;20245;-77
2021/11/20 10:31:42;;;;;;;;;;;10.40;99.90;;;;;;5094342;28;19915;-76
2021/11/20 10:34:15;;;;;;;;;;;10.50;99.90;;;;;;5095294;28;19983;-77
2021/11/20 10:36:46;;;;;;;;;;;10.50;99.90;;;;;;5092470;28;19966;-77
2021/11/20 10:39:14;;;;;;;;;;;10.50;99.90;;;;;;5092065;28;19977;-77
2021/11/20 10:41:39;;;;;;;;;;;10.50;99.90;;;;;;5090702;28;20322;-76
2021/11/20 10:44:14;;;;;;;;;;;10.50;99.90;;;;;;5093108;28;19923;-76
2021/11/20 10:46:48;;;;;;;;;;;10.50;99.90;;;;;;5091344;28;20260;-76
2021/11/20 10:49:33;;;;;;;;;;;10.50;99.90;;;;;;5078227;28;19920;-76
2021/11/20 10:52:04;;;;;;;;;;;10.50;99.90;;;;;;5091035;28;19955;-77
2021/11/20 10:54:36;;;;;;;;;;;10.50;99.90;;;;;;5081145;28;19920;-76
2021/11/20 10:57:06;;;;;;;;;;;10.50;99.90;;;;;;5093939;28;19912;-78
2021/11/20 10:59:55;;;;;;;;;;;10.50;99.90;;;;;;5088704;28;20310;-77
2021/11/20 11:02:27;;;;;;;;;;;10.50;99.90;;;;;;5082979;28;19951;-76
2021/11/20 11:05:02;;;;;;;;;;;10.50;99.90;;;;;;5097611;28;19915;-77
2021/11/20 11:07:40;;;;;;;;;;;10.60;99.90;;;;;;5093415;28;19931;-77
2021/11/20 11:10:11;;;;;;;;;;;10.50;99.90;;;;;;5095233;28;20290;-77
2021/11/20 11:12:56;;;;;;;;;;;10.60;99.90;;;;;;5087918;28;19922;-76
2021/11/20 11:15:24;;;;;;;;;;;10.60;99.90;;;;;;5091022;28;19991;-77
2021/11/20 11:18:12;;;;;;;;;;;10.60;99.90;;;;;;5094289;28;19998;-77
2021/11/20 11:20:41;;;;;;;;;;;10.50;99.90;;;;;;5091174;28;20214;-77
2021/11/20 11:23:10;;;;;;;;;;;10.60;99.90;;;;;;5087752;28;20214;-77
2021/11/20 11:25:41;;;;;;;;;;;10.50;99.90;;;;;;5088204;28;20203;-77
2021/11/20 11:28:13;;;;;;;;;;;10.50;99.90;;;;;;5093581;28;19912;-77
2021/11/20 11:30:45;;;;;;;;;;;10.60;99.90;;;;;;5088014;28;19924;-77
2021/11/20 11:33:10;;;;;;;;;;;10.60;99.90;;;;;;5104761;28;19943;-77
2021/11/20 11:35:36;;;;;;;;;;;10.50;99.90;;;;;;5090425;28;19962;-77
2021/11/20 11:38:11;;;;;;;;;;;10.50;99.90;;;;;;5085538;28;20243;-77
2021/11/20 11:40:40;;;;;;;;;;;10.60;99.90;;;;;;5088228;28;19920;-76
2021/11/20 11:43:35;;;;;;;;;;;10.60;99.90;;;;;;5087432;28;20298;-77
2021/11/20 11:46:20;;;;;;;;;;;10.60;99.90;;;;;;5088894;28;19920;-87
2021/11/20 11:48:52;;;;;;;;;;;10.60;99.90;;;;;;5090463;28;19964;-92
2021/11/20 11:51:40;;;;;;;;;;;10.60;99.90;;;;;;5086156;28;19977;-77
2021/11/20 11:54:06;;;;;;;;;;;10.70;99.90;;;;;;5078270;28;20328;-90
2021/11/20 11:56:33;;;;;;;;;;;10.70;99.90;;;;;;5080585;28;19920;-76
2021/11/20 11:59:02;;;;;;;;;;;10.70;99.90;;;;;;5087400;28;19973;-90
2021/11/20 12:01:39;;;;;;;;;;;10.80;99.90;;;;;;5091875;28;19916;-77
2021/11/20 12:04:12;;;;;;;;;;;10.80;99.90;;;;;;5088400;28;19916;-77
2021/11/20 12:06:44;;;;;;;;;;;10.80;99.90;;;;;;5091636;28;20310;-91
2021/11/20 12:09:29;;;;;;;;;;;10.90;99.90;;;;;;5089312;28;19927;-77
2021/11/20 12:12:05;;;;;;;;;;;10.90;99.90;;;;;;5084468;28;19930;-91
2021/11/20 12:14:37;;;;;;;;;;;10.80;99.90;;;;;;5085487;28;19966;-89
2021/11/20 12:17:21;;;;;;;;;;;10.90;99.90;;;;;;5118955;27;20001;-87
2021/11/20 12:20:05;;;;;;;;;;;10.80;99.90;;;;;;5089354;28;20010;-77
2021/11/20 12:22:44;;;;;;;;;;;10.90;99.90;;;;;;5089724;28;19917;-78
2021/11/20 12:25:13;;;;;;;;;;;10.80;99.90;;;;;;5086503;28;20026;-77
2021/11/20 12:27:38;;;;;;;;;;;10.80;99.90;;;;;;5086937;28;20253;-77
2021/11/20 12:30:07;;;;;;;;;;;10.80;99.90;;;;;;5087081;28;19939;-92
2021/11/20 12:32:32;;;;;;;;;;;10.80;99.90;;;;;;5090316;28;19916;-77
2021/11/20 12:35:16;;;;;;;;;;;10.80;99.90;;;;;;5093876;28;19916;-92
2021/11/20 12:38:01;;;;;;;;;;;10.80;99.90;;;;;;5107677;27;19924;-77
2021/11/20 12:40:35;;;;;;;;;;;10.80;99.90;;;;;;5095658;28;19916;-87
2021/11/20 12:43:19;;;;;;;;;;;10.80;99.90;;;;;;5092672;28;19920;-77
2021/11/20 12:45:50;;;;;;;;;;;10.80;99.90;;;;;;5094245;28;20553;-77
2021/11/20 12:48:34;;;;;;;;;;;10.70;99.90;;;;;;5093457;28;20230;-78
2021/11/20 12:51:09;;;;;;;;;;;10.70;99.90;;;;;;5092262;28;20229;-77
2021/11/20 12:53:50;;;;;;;;;;;10.70;99.90;;;;;;5091495;28;19912;-77
2021/11/20 12:56:48;;;;;;;;;;;10.70;99.90;;;;;;5081360;28;19927;-77
2021/11/20 12:59:16;;;;;;;;;;;10.70;99.90;;;;;;5041350;28;19917;-76
2021/11/20 13:01:45;;;;;;;;;;;10.70;99.90;;;;;;5052316;28;19940;-76
2021/11/20 13:04:13;;;;;;;;;;;10.70;99.90;;;;;;5051137;28;19917;-77
2021/11/20 13:07:04;;;;;;;;;;;10.70;99.90;;;;;;5028822;28;20223;-78
2021/11/20 13:09:35;;;;;;;;;;;10.60;99.90;;;;;;5043620;28;19982;-77
2021/11/20 13:12:09;;;;;;;;;;;10.60;99.90;;;;;;5049575;28;19952;-76
2021/11/20 13:15:00;;;;;;;;;;;10.70;99.90;;;;;;5052406;28;19939;-77
2021/11/20 13:17:27;;;;;;;;;;;10.70;99.90;;;;;;5051809;28;19966;-77
2021/11/20 13:19:58;;;;;;;;;;;10.70;99.90;;;;;;5051173;28;20293;-77
2021/11/20 13:22:25;;;;;;;;;;;10.70;99.90;;;;;;5030686;28;19921;-77
2021/11/20 13:24:58;;;;;;;;;;;10.70;99.90;;;;;;5035872;28;20275;-77
2021/11/20 13:27:39;;;;;;;;;;;10.60;99.90;;;;;;5052239;28;19913;-77
2021/11/20 13:30:05;;;;;;;;;;;10.60;99.90;;;;;;5067761;28;19917;-89
2021/11/20 13:32:31;;;;;;;;;;;10.60;99.90;;;;;;5054548;28;19913;-77
2021/11/20 13:34:57;;;;;;;;;;;10.60;99.90;;;;;;5061724;28;19916;-78
2021/11/20 13:37:23;;;;;;;;;;;10.60;99.90;;;;;;5097068;28;20383;-77
2021/11/20 13:39:49;;;;;;;;;;;10.60;99.90;;;;;;5095630;28;19924;-78
2021/11/20 13:42:15;;;;;;;;;;;10.60;99.90;;;;;;5092762;28;20306;-76
2021/11/20 13:44:41;;;;;;;;;;;10.60;99.90;;;;;;5093693;28;19919;-77
2021/11/20 13:47:07;;;;;;;;;;;10.60;99.90;;;;;;5088531;28;19913;-89
2021/11/20 13:49:33;;;;;;;;;;;10.60;99.90;;;;;;5093329;28;19921;-77
2021/11/20 13:52:13;;;;;;;;;;;10.60;99.90;;;;;;5090732;28;19970;-77
2021/11/20 13:54:39;;;;;;;;;;;10.60;99.90;;;;;;5089941;28;20011;-77
2021/11/20 13:57:11;;;;;;;;;;;10.60;99.90;;;;;;5090239;28;19919;-77
2021/11/20 13:59:37;;;;;;;;;;;10.60;99.90;;;;;;5081842;28;19916;-77
2021/11/20 14:02:06;;;;;;;;;;;10.60;99.90;;;;;;5094997;28;20375;-77
2021/11/20 14:04:37;;;;;;;;;;;10.60;99.90;;;;;;5092590;28;19919;-90
2021/11/20 14:07:05;;;;;;;;;;;10.60;99.90;;;;;;5078548;28;20030;-76
2021/11/20 14:09:30;;;;;;;;;;;10.50;99.90;;;;;;5095844;28;20380;-76
2021/11/20 14:12:15;;;;;;;;;;;10.50;99.90;;;;;;5092684;28;19913;-92
2021/11/20 14:14:41;;;;;;;;;;;10.50;99.90;;;;;;5095875;28;20353;-89
2021/11/20 14:17:09;;;;;;;;;;;10.50;99.90;;;;;;5093795;28;19943;-93
2021/11/20 14:19:35;;;;;;;;;;;10.50;99.90;;;;;;5096161;28;19998;-77
2021/11/20 14:22:03;;;;;;;;;;;10.40;99.90;;;;;;5091617;28;20269;-85
2021/11/20 14:24:30;;;;;;;;;;;10.50;99.90;;;;;;5095710;28;20414;-76
2021/11/20 14:26:58;;;;;;;;;;;10.40;99.90;;;;;;5092020;28;20387;-77